Time;durP1;ratioP1;P1;durP2;ratioP2;P2;SDS_P1;SDS_P2;PMS_P1;PMS_P2;Temp;Humidity;BMP_temperature;BMP_pressure;BME280_temperature;BME280_humidity;BME280_pressure;Samples;Min_cycle;Max_cycle;Signal;HPM_P1;HPM_P2
2021/12/25 00:01:42;;;;;;;7.22;2.88;;;4.20;99.90;;;;;;5078218;28;20446;-65
2021/12/25 00:04:08;;;;;;;5.80;2.47;;;4.20;99.90;;;;;;5084081;28;20471;-65
2021/12/25 00:06:35;;;;;;;8.77;3.25;;;4.10;99.90;;;;;;5076464;28;20024;-65
2021/12/25 00:09:01;;;;;;;6.47;2.30;;;3.80;99.90;;;;;;5070627;28;20077;-65
2021/12/25 00:11:27;;;;;;;3.28;1.73;;;3.60;99.90;;;;;;5071141;28;20020;-65
2021/12/25 00:13:52;;;;;;;7.65;3.22;;;3.90;99.90;;;;;;5068360;28;20035;-66
2021/12/25 00:16:18;;;;;;;6.93;3.20;;;3.80;99.90;;;;;;5069854;28;20100;-65
2021/12/25 00:18:44;;;;;;;8.13;2.28;;;3.70;99.90;;;;;;5074152;28;20774;-65
2021/12/25 00:21:09;;;;;;;4.70;2.40;;;3.70;99.90;;;;;;5072708;28;20447;-65
2021/12/25 00:23:37;;;;;;;4.03;2.72;;;3.60;99.90;;;;;;5068767;28;20043;-66
2021/12/25 00:26:35;;;;;;;6.95;2.03;;;3.40;99.90;;;;;;5070675;28;20020;-65
2021/12/25 00:29:00;;;;;;;7.93;2.67;;;3.60;99.90;;;;;;5077074;28;20850;-65
2021/12/25 00:31:42;;;;;;;6.88;3.45;;;3.40;99.90;;;;;;5074477;28;20115;-65
2021/12/25 00:34:10;;;;;;;4.18;2.10;;;3.50;99.90;;;;;;5080178;28;20017;-65
2021/12/25 00:36:35;;;;;;;5.55;2.25;;;3.50;99.90;;;;;;5079870;28;20419;-65
2021/12/25 00:39:01;;;;;;;7.72;3.22;;;3.50;99.90;;;;;;5077855;28;20020;-65
2021/12/25 00:41:27;;;;;;;5.65;3.15;;;3.30;99.90;;;;;;5073118;28;20594;-65
2021/12/25 00:43:53;;;;;;;6.80;3.50;;;3.30;99.90;;;;;;5080489;28;20099;-65
2021/12/25 00:46:19;;;;;;;6.10;2.63;;;3.50;99.90;;;;;;5079772;28;20055;-65
2021/12/25 00:48:46;;;;;;;2.90;1.50;;;3.40;99.90;;;;;;5070609;28;20499;-65
2021/12/25 00:51:11;;;;;;;12.23;4.03;;;3.30;99.90;;;;;;5071715;28;20017;-65
2021/12/25 00:53:37;;;;;;;5.50;2.28;;;3.20;99.90;;;;;;5083391;28;20049;-65
2021/12/25 00:56:03;;;;;;;5.05;2.28;;;3.30;99.90;;;;;;5079260;28;20032;-65
2021/12/25 00:58:29;;;;;;;11.15;4.72;;;3.20;99.90;;;;;;5074808;28;20384;-65
2021/12/25 01:00:54;;;;;;;5.63;2.35;;;3.00;99.90;;;;;;5071875;28;20424;-65
2021/12/25 01:03:20;;;;;;;4.03;2.40;;;2.90;99.90;;;;;;5082002;28;20021;-65
2021/12/25 01:05:45;;;;;;;11.38;4.38;;;3.10;99.90;;;;;;5078988;28;20032;-65
2021/12/25 01:08:11;;;;;;;5.28;3.40;;;3.00;99.90;;;;;;5070042;28;20028;-65
2021/12/25 01:10:37;;;;;;;8.85;3.80;;;3.00;99.90;;;;;;5076762;28;20488;-65
2021/12/25 01:13:21;;;;;;;4.75;2.22;;;3.10;99.90;;;;;;5078751;28;20024;-65
2021/12/25 01:16:05;;;;;;;6.18;3.10;;;3.20;99.90;;;;;;5073590;28;20042;-65
2021/12/25 01:26:29;;;;;;;9.10;4.97;;;3.00;99.90;;;;;;5087380;28;20032;-63
2021/12/25 01:31:38;;;;;;;17.08;6.18;;;2.70;99.90;;;;;;5069632;28;20025;-63
2021/12/25 01:39:41;;;;;;;9.00;2.50;;;2.90;99.90;;;;;;5081658;28;20020;-63
2021/12/25 01:47:50;;;;;;;6.95;3.60;;;2.80;99.90;;;;;;5067177;28;20491;-63
2021/12/25 01:50:23;;;;;;;7.90;3.53;;;2.80;99.90;;;;;;5075848;28;20012;-63
2021/12/25 01:52:49;;;;;;;4.63;1.63;;;2.90;99.90;;;;;;5072774;28;20017;-63
2021/12/25 01:55:19;;;;;;;5.70;3.40;;;2.80;99.90;;;;;;5068905;28;20057;-64
2021/12/25 01:57:45;;;;;;;15.50;6.13;;;2.90;99.90;;;;;;5072795;28;20075;-63
2021/12/25 02:00:19;;;;;;;11.20;3.85;;;2.70;99.90;;;;;;5070393;28;20063;-63
2021/12/25 02:02:46;;;;;;;13.27;4.78;;;2.60;99.90;;;;;;5079732;28;20392;-64
2021/12/25 02:05:12;;;;;;;6.57;2.83;;;2.50;99.90;;;;;;5077748;28;20017;-64
2021/12/25 02:07:38;;;;;;;6.70;2.45;;;2.60;99.90;;;;;;5072174;28;20499;-63
2021/12/25 02:10:06;;;;;;;7.43;2.60;;;2.50;99.90;;;;;;5076619;28;20031;-63
2021/12/25 02:12:33;;;;;;;5.95;2.75;;;2.60;99.90;;;;;;5080827;28;20426;-64
2021/12/25 02:15:04;;;;;;;11.63;4.93;;;2.70;99.90;;;;;;5080780;28;20259;-65
2021/12/25 02:17:50;;;;;;;15.82;6.43;;;2.50;99.90;;;;;;5083011;28;20158;-65
2021/12/25 02:20:23;;;;;;;6.85;3.05;;;2.60;99.90;;;;;;5075909;28;20522;-65
2021/12/25 02:22:49;;;;;;;9.95;4.60;;;2.50;99.90;;;;;;5079406;28;20016;-64
2021/12/25 02:25:15;;;;;;;7.25;3.20;;;2.40;99.90;;;;;;5071474;28;20078;-64
2021/12/25 02:27:44;;;;;;;6.07;3.35;;;2.50;99.90;;;;;;5078800;28;20484;-64
2021/12/25 02:30:10;;;;;;;7.28;3.78;;;2.70;99.90;;;;;;5079745;28;20023;-64
2021/12/25 02:32:35;;;;;;;6.30;3.80;;;2.50;99.90;;;;;;5073023;28;20021;-64
2021/12/25 02:35:01;;;;;;;6.45;3.22;;;2.60;99.90;;;;;;5070911;28;20029;-64
2021/12/25 02:37:27;;;;;;;10.52;4.65;;;2.50;99.90;;;;;;5078590;28;20384;-64
2021/12/25 02:39:52;;;;;;;12.90;5.18;;;2.40;99.90;;;;;;5081323;28;20078;-64
2021/12/25 02:42:18;;;;;;;11.25;4.45;;;2.20;99.90;;;;;;5086938;28;20020;-64
2021/12/25 02:44:44;;;;;;;12.05;4.18;;;2.30;99.90;;;;;;5073157;28;20024;-64
2021/12/25 02:47:19;;;;;;;12.18;4.97;;;2.40;99.90;;;;;;5070728;28;20063;-64
2021/12/25 02:49:51;;;;;;;16.40;5.18;;;2.20;99.90;;;;;;5079456;28;20036;-64
2021/12/25 02:52:18;;;;;;;17.92;5.38;;;2.20;99.90;;;;;;5088156;28;20405;-64
2021/12/25 02:54:44;;;;;;;9.90;3.45;;;2.10;99.90;;;;;;5076612;28;20423;-64
2021/12/25 02:57:11;;;;;;;7.22;3.55;;;2.30;99.90;;;;;;5080225;28;20059;-64
2021/12/25 02:59:37;;;;;;;8.55;1.75;;;2.50;99.90;;;;;;5073888;28;20024;-64
2021/12/25 03:02:16;;;;;;;7.75;4.47;;;2.30;99.90;;;;;;5086639;28;20026;-64
2021/12/25 03:04:44;;;;;;;4.55;2.22;;;2.20;99.90;;;;;;5090890;28;20476;-64
2021/12/25 03:07:11;;;;;;;5.90;3.63;;;2.30;99.90;;;;;;5078557;28;20400;-64
2021/12/25 03:09:37;;;;;;;8.15;3.83;;;2.30;99.90;;;;;;5078135;28;20036;-64
2021/12/25 03:12:06;;;;;;;4.97;3.25;;;2.10;99.90;;;;;;5081362;28;20059;-64
2021/12/25 03:14:38;;;;;;;10.90;5.10;;;2.30;99.90;;;;;;5088589;28;20073;-64
2021/12/25 03:17:04;;;;;;;14.80;5.68;;;2.30;99.90;;;;;;5078593;28;20016;-64
2021/12/25 03:19:32;;;;;;;11.65;4.18;;;2.30;99.90;;;;;;5078248;28;20037;-64
2021/12/25 03:22:04;;;;;;;6.18;3.63;;;2.20;99.90;;;;;;5074373;28;20045;-64
2021/12/25 03:24:29;;;;;;;9.98;4.15;;;2.30;99.90;;;;;;5080215;28;20538;-64
2021/12/25 03:26:57;;;;;;;8.15;3.58;;;2.00;99.90;;;;;;5079099;28;20020;-64
2021/12/25 03:29:26;;;;;;;11.27;5.32;;;2.00;99.90;;;;;;5074160;28;20111;-64
2021/12/25 03:31:52;;;;;;;6.60;3.03;;;2.30;99.90;;;;;;5078587;28;20236;-64
2021/12/25 03:34:18;;;;;;;5.75;3.35;;;2.30;99.90;;;;;;5069251;28;20017;-64
2021/12/25 03:36:44;;;;;;;7.35;3.15;;;2.20;99.90;;;;;;5078337;28;20028;-64
2021/12/25 03:39:11;;;;;;;10.43;4.65;;;2.20;99.90;;;;;;5080252;28;20551;-64
2021/12/25 03:41:36;;;;;;;8.57;3.88;;;2.30;99.90;;;;;;5076555;28;20058;-64
2021/12/25 03:44:03;;;;;;;11.55;3.75;;;2.20;99.90;;;;;;5077832;28;20028;-64
2021/12/25 03:46:30;;;;;;;5.22;2.92;;;2.10;99.90;;;;;;5076090;28;20492;-65
2021/12/25 04:00:06;;;;;;;14.57;6.57;;;2.10;99.90;;;;;;5078399;28;20024;-64
2021/12/25 04:02:36;;;;;;;12.60;6.13;;;1.90;99.90;;;;;;5084517;28;20031;-65
2021/12/25 04:05:06;;;;;;;12.55;4.65;;;1.20;99.90;;;;;;5084901;28;20266;-64
2021/12/25 04:10:02;;;;;;;8.32;3.90;;;2.10;99.90;;;;;;5070846;28;20028;-64
2021/12/25 04:12:27;;;;;;;6.35;2.58;;;2.00;99.90;;;;;;5079324;28;20028;-64
2021/12/25 04:14:53;;;;;;;7.32;2.72;;;2.00;99.90;;;;;;5079929;28;20028;-64
2021/12/25 04:17:18;;;;;;;8.98;3.50;;;2.00;99.90;;;;;;5081254;28;20465;-64
2021/12/25 04:19:44;;;;;;;4.07;2.30;;;1.80;99.90;;;;;;5078781;28;20075;-64
2021/12/25 04:22:17;;;;;;;6.72;3.67;;;2.00;99.90;;;;;;5071863;28;20436;-65
2021/12/25 04:24:45;;;;;;;4.90;1.98;;;2.00;99.90;;;;;;5072136;28;20028;-64
2021/12/25 04:27:14;;;;;;;6.93;3.28;;;2.00;99.90;;;;;;5074814;28;20024;-64
2021/12/25 04:29:53;;;;;;;8.10;3.33;;;1.70;99.90;;;;;;5079838;28;20028;-64
2021/12/25 05:02:12;;;;;;;4.85;2.30;;;1.60;99.90;;;;;;5084184;28;20514;-65
2021/12/25 05:05:02;;;;;;;5.13;2.85;;;1.80;99.90;;;;;;5083190;28;20025;-65
2021/12/25 05:07:23;;;;;;;4.18;2.92;;;1.60;99.90;;;;;;5075446;28;20068;-65
2021/12/25 05:09:49;;;;;;;4.57;1.52;;;1.60;99.90;;;;;;5079130;28;20487;-65
2021/12/25 05:12:14;;;;;;;12.45;3.30;;;1.50;99.90;;;;;;5085716;28;20043;-65
2021/12/25 05:14:40;;;;;;;4.82;2.78;;;1.60;99.90;;;;;;5083295;28;20111;-65
2021/12/25 05:17:07;;;;;;;11.82;4.70;;;1.50;99.90;;;;;;5077108;28;20013;-65
2021/12/25 05:19:33;;;;;;;4.70;2.55;;;1.00;99.90;;;;;;5072868;28;20048;-65
2021/12/25 05:21:58;;;;;;;8.95;3.22;;;1.30;99.90;;;;;;5078152;28;20038;-65
2021/12/25 05:24:24;;;;;;;10.32;2.97;;;1.40;99.90;;;;;;5074146;28;20024;-65
2021/12/25 05:26:50;;;;;;;5.95;1.95;;;1.40;99.90;;;;;;5079680;28;20039;-65
2021/12/25 05:29:23;;;;;;;5.70;2.70;;;1.50;99.90;;;;;;5079391;28;20017;-65
2021/12/25 05:31:49;;;;;;;10.95;4.35;;;1.40;99.90;;;;;;5082885;28;20081;-65
2021/12/25 05:34:15;;;;;;;9.23;3.45;;;1.30;99.90;;;;;;5082547;28;20024;-64
2021/12/25 05:36:40;;;;;;;4.55;2.90;;;1.30;99.90;;;;;;5081720;28;20050;-64
2021/12/25 05:39:11;;;;;;;4.63;2.50;;;1.40;99.90;;;;;;5070350;28;20027;-65
2021/12/25 05:41:36;;;;;;;;;;;1.40;99.90;;;;;;5083686;28;20023;-65
2021/12/25 05:44:02;;;;;;;5.82;2.35;;;1.40;99.90;;;;;;5074711;28;20291;-65
2021/12/25 05:46:28;;;;;;;3.30;2.05;;;1.30;99.90;;;;;;5069398;28;20044;-65
2021/12/25 05:48:53;;;;;;;5.53;2.55;;;1.30;99.90;;;;;;5073533;28;20020;-65
2021/12/25 05:51:20;;;;;;;3.40;2.15;;;1.30;99.90;;;;;;5078608;28;20086;-65
2021/12/25 05:53:46;;;;;;;11.55;4.15;;;1.40;99.90;;;;;;5074082;28;20178;-65
2021/12/25 05:56:12;;;;;;;5.97;2.67;;;1.40;99.90;;;;;;5077195;28;20024;-65
2021/12/25 05:58:38;;;;;;;4.50;2.53;;;1.40;99.90;;;;;;5081165;28;20048;-65
2021/12/25 06:01:05;;;;;;;3.42;1.70;;;1.20;99.90;;;;;;5077371;28;20064;-65
2021/12/25 06:03:32;;;;;;;7.85;1.73;;;1.30;99.90;;;;;;5075597;28;20028;-65
2021/12/25 06:05:58;;;;;;;11.80;4.68;;;1.40;99.90;;;;;;5076014;28;20046;-65
2021/12/25 06:08:24;;;;;;;3.38;2.03;;;1.10;99.90;;;;;;5075367;28;20029;-65
2021/12/25 06:10:50;;;;;;;3.35;2.40;;;1.00;99.90;;;;;;5072282;28;20025;-65
2021/12/25 06:13:19;;;;;;;8.77;3.80;;;1.20;99.90;;;;;;5080869;28;20472;-65
2021/12/25 06:15:45;;;;;;;13.90;5.15;;;1.10;99.90;;;;;;5080905;28;20430;-65
2021/12/25 06:18:11;;;;;;;6.30;3.05;;;1.00;99.90;;;;;;5080965;28;20108;-64
2021/12/25 06:20:38;;;;;;;6.88;2.45;;;1.00;99.90;;;;;;5084310;28;20060;-65
2021/12/25 06:23:04;;;;;;;9.38;4.57;;;0.80;99.90;;;;;;5082939;28;20430;-65
2021/12/25 06:25:29;;;;;;;9.68;3.10;;;0.90;99.90;;;;;;5078747;28;20041;-65
2021/12/25 06:27:56;;;;;;;5.28;2.40;;;0.80;99.90;;;;;;5075779;28;20581;-65
2021/12/25 06:30:21;;;;;;;3.08;1.42;;;1.10;99.90;;;;;;5079200;28;20409;-65
2021/12/25 06:32:47;;;;;;;14.00;5.00;;;0.80;99.90;;;;;;5081499;28;20426;-65
2021/12/25 06:35:13;;;;;;;9.25;3.50;;;0.70;99.90;;;;;;5073451;28;20389;-65
2021/12/25 06:37:45;;;;;;;8.93;2.42;;;0.80;99.90;;;;;;5077125;28;20437;-65
2021/12/25 06:40:12;;;;;;;7.30;2.75;;;0.90;99.90;;;;;;5075914;28;20103;-65
2021/12/25 06:42:38;;;;;;;3.30;1.98;;;0.90;99.90;;;;;;5077610;28;20096;-65
2021/12/25 06:45:05;;;;;;;13.65;4.82;;;1.20;99.90;;;;;;5073541;28;20063;-65
2021/12/25 06:47:31;;;;;;;4.50;3.00;;;0.80;99.90;;;;;;5074142;28;20029;-65
2021/12/25 06:49:56;;;;;;;8.27;3.83;;;0.90;99.90;;;;;;5076344;28;20065;-65
2021/12/25 06:52:22;;;;;;;14.50;4.47;;;0.70;99.90;;;;;;5075471;28;20107;-65
2021/12/25 06:54:48;;;;;;;3.60;2.05;;;0.60;99.90;;;;;;5081161;28;20403;-65
2021/12/25 06:57:13;;;;;;;13.35;4.95;;;0.70;99.90;;;;;;5079359;28;20025;-65
2021/12/25 06:59:39;;;;;;;5.93;2.33;;;0.70;99.90;;;;;;5077755;28;20082;-65
2021/12/25 07:02:05;;;;;;;2.70;2.08;;;0.70;99.90;;;;;;5077472;28;20488;-65
2021/12/25 07:04:30;;;;;;;7.15;2.97;;;1.00;99.90;;;;;;5075165;28;20484;-65
2021/12/25 07:06:56;;;;;;;4.38;2.55;;;0.70;99.90;;;;;;5081360;28;20095;-65
2021/12/25 07:09:22;;;;;;;14.15;5.45;;;0.80;99.90;;;;;;5077961;28;20433;-65
2021/12/25 07:11:48;;;;;;;6.15;3.08;;;0.70;99.90;;;;;;5074979;28;20267;-65
2021/12/25 07:14:13;;;;;;;5.95;2.40;;;0.80;99.90;;;;;;5070884;28;20024;-65
2021/12/25 07:16:39;;;;;;;6.95;2.92;;;0.80;99.90;;;;;;5077897;28;20104;-65
2021/12/25 07:19:06;;;;;;;3.67;2.13;;;0.80;99.90;;;;;;5076832;28;20135;-65
2021/12/25 07:21:31;;;;;;;6.93;2.53;;;0.70;99.90;;;;;;5073491;28;20028;-65
2021/12/25 07:23:57;;;;;;;9.40;3.88;;;0.90;99.90;;;;;;5070118;28;20030;-65
2021/12/25 07:26:26;;;;;;;12.90;3.63;;;0.80;99.90;;;;;;5076717;28;20040;-65
2021/12/25 07:28:52;;;;;;;12.73;5.22;;;0.90;99.90;;;;;;5076594;28;20028;-65
2021/12/25 07:31:20;;;;;;;8.48;2.72;;;0.60;99.90;;;;;;5076331;28;20078;-65
2021/12/25 07:33:46;;;;;;;4.53;2.38;;;0.70;99.90;;;;;;5080362;28;20020;-65
2021/12/25 07:36:13;;;;;;;8.45;4.30;;;0.60;99.90;;;;;;5079801;28;20032;-65
2021/12/25 07:38:39;;;;;;;9.27;3.38;;;0.80;99.90;;;;;;5072747;28;20098;-65
2021/12/25 07:41:05;;;;;;;5.95;2.55;;;0.60;99.90;;;;;;5080589;28;20028;-65
2021/12/25 07:43:30;;;;;;;9.45;4.07;;;0.80;99.90;;;;;;5074467;28;20081;-65
2021/12/25 07:45:56;;;;;;;16.40;5.85;;;0.70;99.90;;;;;;5074505;28;20056;-65
2021/12/25 07:48:25;;;;;;;4.57;2.35;;;0.70;99.90;;;;;;5068201;28;20028;-65
2021/12/25 07:50:51;;;;;;;1.58;1.25;;;0.80;99.90;;;;;;5077540;28;20491;-65
2021/12/25 07:53:17;;;;;;;7.50;2.58;;;0.90;99.90;;;;;;5078032;28;20104;-65
2021/12/25 07:55:44;;;;;;;10.63;3.42;;;0.90;99.90;;;;;;5077988;28;20146;-65
2021/12/25 07:58:09;;;;;;;8.32;2.72;;;0.80;99.90;;;;;;5082809;28;20023;-65
2021/12/25 08:00:36;;;;;;;2.05;1.27;;;0.70;99.90;;;;;;5077836;28;20127;-65
2021/12/25 08:03:02;;;;;;;5.43;2.65;;;0.80;99.90;;;;;;5078484;28;20114;-65
2021/12/25 08:05:29;;;;;;;9.60;3.20;;;1.00;99.90;;;;;;5074962;28;20036;-65
2021/12/25 08:07:54;;;;;;;12.40;3.97;;;0.90;99.90;;;;;;5077748;28;20039;-65
2021/12/25 08:10:21;;;;;;;6.47;2.67;;;0.80;99.90;;;;;;5088951;28;20395;-65
2021/12/25 08:12:55;;;;;;;6.78;3.22;;;0.80;99.90;;;;;;5072649;28;20029;-65
2021/12/25 08:15:25;;;;;;;9.98;3.78;;;0.60;99.90;;;;;;5072519;28;20270;-65
2021/12/25 08:17:51;;;;;;;1.97;1.50;;;0.60;99.90;;;;;;5075959;28;20491;-65
2021/12/25 08:20:18;;;;;;;7.50;2.80;;;0.80;99.90;;;;;;5072111;28;20071;-65
2021/12/25 08:22:44;;;;;;;2.13;1.30;;;0.50;99.90;;;;;;5079375;28;20059;-65
2021/12/25 08:25:12;;;;;;;4.82;2.33;;;0.50;99.90;;;;;;5081637;28;20027;-65
2021/12/25 08:27:40;;;;;;;5.07;1.63;;;0.50;99.90;;;;;;5075157;28;20537;-65
2021/12/25 08:30:08;;;;;;;7.18;2.80;;;0.40;99.90;;;;;;5075086;28;20106;-65
2021/12/25 08:32:34;;;;;;;9.50;3.55;;;0.30;99.90;;;;;;5074327;28;20487;-65
2021/12/25 08:35:00;;;;;;;7.68;3.17;;;0.40;99.90;;;;;;5074789;28;20027;-65
2021/12/25 08:37:26;;;;;;;3.55;1.58;;;0.50;99.90;;;;;;5073598;28;20028;-65
2021/12/25 08:39:53;;;;;;;6.60;2.60;;;0.60;99.90;;;;;;5070586;28;20485;-65
2021/12/25 08:42:20;;;;;;;7.85;2.75;;;0.50;99.90;;;;;;5072641;28;20035;-65
2021/12/25 08:47:25;;;;;;;5.75;2.28;;;0.60;99.90;;;;;;5070365;28;20032;-65
2021/12/25 08:49:51;;;;;;;6.05;2.38;;;0.60;99.90;;;;;;5073899;28;20544;-65
2021/12/25 08:52:19;;;;;;;4.97;1.85;;;0.30;99.90;;;;;;5069890;28;20092;-65
2021/12/25 08:54:48;;;;;;;1.60;1.27;;;0.40;99.90;;;;;;5071417;28;20021;-65
2021/12/25 08:57:15;;;;;;;3.20;1.33;;;0.50;99.90;;;;;;5074574;28;20028;-65
2021/12/25 08:59:40;;;;;;;2.55;1.63;;;0.50;99.90;;;;;;5077167;28;20051;-65
2021/12/25 09:02:10;;;;;;;2.42;1.40;;;0.50;99.90;;;;;;5075988;28;20025;-65
2021/12/25 09:04:37;;;;;;;1.20;1.00;;;0.80;99.90;;;;;;5079292;28;20031;-65
2021/12/25 09:07:04;;;;;;;1.23;1.00;;;0.80;99.90;;;;;;5069317;28;20093;-65
2021/12/25 09:09:29;;;;;;;2.53;1.70;;;0.70;99.90;;;;;;5077166;28;20036;-65
2021/12/25 09:11:55;;;;;;;3.65;1.48;;;0.70;99.90;;;;;;5076700;28;20039;-65
2021/12/25 09:14:21;;;;;;;5.88;2.08;;;0.50;99.90;;;;;;5070356;28;20074;-65
2021/12/25 09:16:47;;;;;;;1.08;0.90;;;0.60;99.90;;;;;;5072991;28;20400;-65
2021/12/25 09:19:12;;;;;;;2.70;1.60;;;0.60;99.90;;;;;;5072248;28;20035;-65
2021/12/25 09:21:38;;;;;;;4.53;2.10;;;0.70;99.90;;;;;;5077094;28;20131;-66
2021/12/25 09:24:04;;;;;;;0.85;0.73;;;0.50;99.90;;;;;;5083922;28;20085;-66
2021/12/25 09:26:30;;;;;;;5.20;1.52;;;0.50;99.90;;;;;;5088618;28;20032;-66
2021/12/25 09:28:56;;;;;;;2.22;1.30;;;0.80;99.90;;;;;;5075883;28;20035;-66
2021/12/25 09:31:21;;;;;;;4.15;1.95;;;0.60;99.90;;;;;;5080289;28;20020;-67
2021/12/25 09:33:47;;;;;;;5.13;2.60;;;0.60;99.90;;;;;;5079937;28;20020;-65
2021/12/25 09:36:13;;;;;;;6.18;2.35;;;1.40;99.90;;;;;;5086424;28;20016;-65
2021/12/25 09:38:39;;;;;;;9.13;2.70;;;0.60;99.90;;;;;;5083447;28;20020;-65
2021/12/25 09:41:06;;;;;;;2.90;1.50;;;0.70;99.90;;;;;;5086760;28;20028;-65
2021/12/25 09:43:33;;;;;;;6.80;3.00;;;0.30;99.90;;;;;;5088149;28;20028;-66
2021/12/25 09:45:59;;;;;;;8.45;3.20;;;0.30;99.90;;;;;;5087952;28;20024;-65
2021/12/25 09:48:25;;;;;;;6.63;2.22;;;0.20;99.90;;;;;;5082121;28;20036;-65
2021/12/25 09:50:51;;;;;;;13.02;5.72;;;0.20;99.90;;;;;;5081295;28;20346;-64
2021/12/25 09:53:19;;;;;;;2.88;1.52;;;0.20;99.90;;;;;;5086239;28;20043;-63
2021/12/25 09:55:47;;;;;;;7.50;2.72;;;0.20;99.90;;;;;;5090514;28;20443;-65
2021/12/25 09:58:13;;;;;;;8.00;3.22;;;0.40;99.90;;;;;;5088532;28;20021;-65
2021/12/25 10:00:44;;;;;;;6.70;2.78;;;0.30;99.90;;;;;;5079877;28;20488;-64
2021/12/25 10:03:10;;;;;;;7.13;2.63;;;0.40;99.90;;;;;;5075647;28;20082;-65
2021/12/25 10:05:41;;;;;;;6.15;2.17;;;0.20;99.90;;;;;;5084800;28;20028;-64
2021/12/25 10:08:26;;;;;;;3.92;1.95;;;0.30;99.90;;;;;;5085011;28;20391;-64
2021/12/25 10:11:00;;;;;;;1.63;1.15;;;0.40;99.90;;;;;;5087241;28;20095;-64
2021/12/25 10:13:29;;;;;;;6.00;2.60;;;0.30;99.90;;;;;;5080069;28;20032;-65
2021/12/25 10:16:17;;;;;;;8.10;2.67;;;0.50;99.90;;;;;;5081960;28;20098;-65
2021/12/25 10:18:43;;;;;;;15.80;6.47;;;0.30;99.90;;;;;;5082453;28;20103;-66
2021/12/25 10:21:27;;;;;;;7.50;3.28;;;0.60;99.90;;;;;;5077344;28;20462;-65
2021/12/25 10:24:18;;;;;;;4.82;1.38;;;0.40;99.90;;;;;;5076321;28;20097;-65
2021/12/25 10:26:46;;;;;;;7.32;3.17;;;0.40;99.90;;;;;;5079560;28;20103;-63
2021/12/25 10:29:20;;;;;;;4.85;2.13;;;0.80;99.90;;;;;;5084427;28;20024;-64
2021/12/25 10:31:46;;;;;;;9.43;3.97;;;0.50;99.90;;;;;;5078094;28;20021;-63
2021/12/25 10:34:22;;;;;;;3.45;2.20;;;0.80;99.90;;;;;;5082954;28;20020;-63
2021/12/25 10:36:48;;;;;;;8.23;1.30;;;1.30;99.90;;;;;;5079473;28;20027;-65
2021/12/25 10:39:24;;;;;;;5.32;1.98;;;1.00;99.90;;;;;;5087801;28;20514;-64
2021/12/25 10:42:09;;;;;;;2.58;1.30;;;0.50;99.90;;;;;;5080748;28;20024;-64
2021/12/25 10:44:40;;;;;;;3.75;1.60;;;-0.10;99.90;;;;;;5081273;28;20056;-65
2021/12/25 10:47:10;;;;;;;1.92;1.30;;;0.10;99.90;;;;;;5084039;28;20487;-65
2021/12/25 10:49:42;;;;;;;3.75;1.67;;;0.30;99.90;;;;;;5081216;28;20035;-65
2021/12/25 10:52:39;;;;;;;0.70;0.70;;;0.00;99.90;;;;;;5080534;28;20021;-65
2021/12/25 10:55:18;;;;;;;2.63;1.52;;;0.20;99.90;;;;;;5080630;28;20524;-65
2021/12/25 10:57:55;;;;;;;3.33;1.38;;;0.10;99.90;;;;;;5083663;28;20020;-65
2021/12/25 11:00:21;;;;;;;2.58;1.55;;;0.10;99.90;;;;;;5082366;28;20034;-64
2021/12/25 11:03:16;;;;;;;11.82;1.45;;;0.00;99.90;;;;;;5076739;28;20048;-64
2021/12/25 11:05:47;;;;;;;1.90;1.33;;;0.00;99.90;;;;;;5066077;28;20037;-63
2021/12/25 11:08:23;;;;;;;0.80;0.80;;;-0.10;99.90;;;;;;5077997;28;20016;-65
2021/12/25 11:11:04;;;;;;;2.45;1.30;;;0.00;99.90;;;;;;5073470;28;20013;-67
2021/12/25 11:13:31;;;;;;;1.85;1.00;;;0.10;99.90;;;;;;5075737;28;20021;-65
2021/12/25 11:16:07;;;;;;;3.95;1.55;;;0.10;99.90;;;;;;5080011;28;20024;-64
2021/12/25 11:19:11;;;;;;;4.53;2.00;;;0.10;99.90;;;;;;5074289;28;20102;-65
2021/12/25 11:21:43;;;;;;;1.80;1.08;;;0.00;99.90;;;;;;5073304;28;20052;-65
2021/12/25 11:24:21;;;;;;;2.03;1.38;;;0.10;99.90;;;;;;5086595;28;20016;-65
2021/12/25 11:26:49;;;;;;;1.30;1.02;;;0.10;99.90;;;;;;5070892;28;20029;-64
2021/12/25 11:29:18;;;;;;;1.77;1.00;;;0.50;99.90;;;;;;5071260;28;20199;-66
2021/12/25 11:31:45;;;;;;;2.78;1.25;;;0.50;99.90;;;;;;5086542;28;20023;-66
2021/12/25 11:34:11;;;;;;;3.55;2.10;;;0.70;99.90;;;;;;5079977;28;20016;-64
2021/12/25 11:36:45;;;;;;;4.03;1.70;;;1.70;99.90;;;;;;5075341;28;20103;-65
2021/12/25 11:39:11;;;;;;;2.08;1.05;;;1.60;99.90;;;;;;5085315;28;20036;-65
2021/12/25 11:41:39;;;;;;;1.77;1.13;;;2.30;99.90;;;;;;5081003;28;20036;-66
2021/12/25 11:44:24;;;;;;;4.15;1.50;;;2.80;99.90;;;;;;5086169;28;20074;-67
2021/12/25 11:46:50;;;;;;;1.50;0.90;;;3.00;99.90;;;;;;5079986;28;20051;-66
2021/12/25 11:49:16;;;;;;;1.05;0.95;;;3.10;99.90;;;;;;5082899;28;20072;-66
2021/12/25 11:51:44;;;;;;;2.78;1.30;;;3.60;99.90;;;;;;5075203;28;20021;-66
2021/12/25 11:59:53;;;;;;;1.73;1.27;;;3.30;99.90;;;;;;5068414;28;20061;-68
2021/12/25 12:02:40;;;;;;;2.38;1.20;;;4.10;99.90;;;;;;5075684;28;20126;-68
2021/12/25 12:05:29;;;;;;;2.33;1.00;;;4.90;99.90;;;;;;5079292;28;20024;-68
2021/12/25 12:08:03;;;;;;;1.13;0.82;;;4.80;99.90;;;;;;5073577;28;20436;-68
2021/12/25 12:10:48;;;;;;;0.95;0.90;;;4.40;99.90;;;;;;5078754;28;20043;-68
2021/12/25 12:13:25;;;;;;;1.73;1.02;;;4.30;99.90;;;;;;5077535;28;20493;-68
2021/12/25 12:15:53;;;;;;;1.20;0.90;;;5.30;99.90;;;;;;5076611;28;20457;-68
2021/12/25 12:18:29;;;;;;;1.45;0.90;;;5.50;99.90;;;;;;5070762;28;20016;-68
2021/12/25 12:21:12;;;;;;;0.70;0.70;;;5.60;99.90;;;;;;5079498;28;20036;-68
2021/12/25 12:26:13;;;;;;;3.10;1.38;;;5.20;99.90;;;;;;5073728;28;20055;-69
2021/12/25 12:28:45;;;;;;;1.08;0.85;;;5.10;99.90;;;;;;5076228;28;20071;-69
2021/12/25 12:31:34;;;;;;;0.70;0.70;;;4.70;99.90;;;;;;5075745;28;20051;-69
2021/12/25 12:34:00;;;;;;;0.90;0.90;;;4.70;99.90;;;;;;5075838;28;20384;-69
2021/12/25 12:36:27;;;;;;;0.90;0.82;;;5.40;99.90;;;;;;5071561;28;20033;-69
2021/12/25 12:39:10;;;;;;;1.38;1.00;;;5.70;99.90;;;;;;5078205;28;20069;-69
2021/12/25 12:41:42;;;;;;;0.82;0.80;;;5.10;99.90;;;;;;5078832;28;20119;-69
2021/12/25 12:44:14;;;;;;;1.02;0.80;;;4.80;99.90;;;;;;5077859;28;20016;-69
2021/12/25 12:46:55;;;;;;;1.85;1.08;;;4.60;99.90;;;;;;5077616;28;20024;-69
2021/12/25 12:49:31;;;;;;;0.80;0.80;;;4.00;99.90;;;;;;5083782;28;20048;-69
2021/12/25 12:52:41;;;;;;;0.70;0.70;;;4.60;99.90;;;;;;5071421;28;20036;-68
2021/12/25 12:55:07;;;;;;;1.15;0.98;;;4.60;99.90;;;;;;5068079;28;20041;-68
2021/12/25 12:57:35;;;;;;;1.05;0.90;;;4.50;99.90;;;;;;5071835;28;20050;-68
2021/12/25 13:00:12;;;;;;;1.55;1.10;;;4.80;99.90;;;;;;5073403;28;20016;-68
2021/12/25 13:02:45;;;;;;;2.33;0.95;;;5.70;99.90;;;;;;5073487;28;20511;-69
2021/12/25 13:05:12;;;;;;;1.60;1.10;;;5.30;99.90;;;;;;5081192;28;20036;-69
2021/12/25 13:07:42;;;;;;;0.85;0.70;;;5.00;99.90;;;;;;5075901;28;20162;-69
2021/12/25 13:10:29;;;;;;;1.88;0.90;;;5.40;99.90;;;;;;5081190;28;20020;-69
2021/12/25 13:13:14;;;;;;;2.63;1.23;;;5.10;99.90;;;;;;5072827;28;20048;-69
2021/12/25 13:15:42;;;;;;;1.15;0.90;;;4.80;99.90;;;;;;5076191;28;20028;-69
2021/12/25 13:18:09;;;;;;;0.80;0.80;;;5.10;99.90;;;;;;5079415;28;20070;-69
2021/12/25 13:20:45;;;;;;;3.63;1.10;;;5.90;99.90;;;;;;5071899;28;20036;-69
2021/12/25 13:23:21;;;;;;;0.70;0.70;;;6.40;99.90;;;;;;5069002;28;20020;-69
2021/12/25 13:26:00;;;;;;;1.20;0.80;;;5.80;99.90;;;;;;5070437;28;20111;-69
2021/12/25 13:28:31;;;;;;;2.72;1.45;;;5.40;99.90;;;;;;5067717;28;20488;-68
2021/12/25 13:31:00;;;;;;;1.33;1.10;;;4.10;99.90;;;;;;5069127;28;20686;-68
2021/12/25 13:33:30;;;;;;;2.28;0.95;;;2.90;99.90;;;;;;5074928;28;20025;-68
2021/12/25 13:36:24;;;;;;;1.75;0.98;;;2.90;99.90;;;;;;5080507;28;20021;-68
2021/12/25 13:38:58;;;;;;;0.70;0.70;;;2.70;99.90;;;;;;5068172;28;20635;-68
2021/12/25 13:41:41;;;;;;;2.17;1.10;;;2.10;99.90;;;;;;5075674;28;20024;-68
2021/12/25 13:44:12;;;;;;;1.65;1.02;;;1.80;99.90;;;;;;5085206;28;20056;-68
2021/12/25 13:46:59;;;;;;;0.80;0.80;;;1.50;99.90;;;;;;5081910;28;20043;-68
2021/12/25 13:49:34;;;;;;;1.92;1.23;;;1.80;99.90;;;;;;5072101;28;20029;-68
2021/12/25 13:52:10;;;;;;;1.17;0.88;;;1.60;99.90;;;;;;5084869;28;20017;-68
2021/12/25 13:54:41;;;;;;;0.80;0.80;;;1.40;99.90;;;;;;5071268;28;20480;-68
2021/12/25 13:57:08;;;;;;;0.80;0.80;;;1.10;99.90;;;;;;5075046;28;20112;-68
2021/12/25 13:59:34;;;;;;;1.00;0.90;;;1.00;99.90;;;;;;5078325;28;20024;-68
2021/12/25 14:02:02;;;;;;;0.70;0.70;;;0.80;99.90;;;;;;5076448;28;20028;-68
2021/12/25 14:04:28;;;;;;;0.70;0.70;;;1.00;99.90;;;;;;5076945;28;20054;-68
2021/12/25 14:06:54;;;;;;;0.70;0.70;;;0.80;99.90;;;;;;5072872;28;20020;-68
2021/12/25 14:09:19;;;;;;;1.40;1.00;;;0.90;99.90;;;;;;5085237;28;20031;-69
2021/12/25 14:11:54;;;;;;;0.80;0.80;;;0.80;99.90;;;;;;5080629;28;20028;-68
2021/12/25 14:14:22;;;;;;;0.70;0.70;;;0.90;99.90;;;;;;5076189;28;20369;-68
2021/12/25 14:16:49;;;;;;;6.70;1.20;;;1.00;99.90;;;;;;5071547;28;20039;-68
2021/12/25 14:19:15;;;;;;;2.30;0.98;;;1.00;99.90;;;;;;5083660;28;20061;-69
2021/12/25 14:21:55;;;;;;;0.80;0.80;;;1.10;99.90;;;;;;5077685;28;20141;-68
2021/12/25 14:24:21;;;;;;;0.80;0.80;;;1.20;99.90;;;;;;5074888;28;20028;-68